createdAt,value
2023-03-03T00:01:10.908Z,37.13
2023-03-03T00:03:40.394Z,32.38
2023-03-03T00:06:12.263Z,31.75
2023-03-03T00:08:41.879Z,31.48
2023-03-03T00:11:12.700Z,33.30
2023-03-03T00:13:49.476Z,33.72
2023-03-03T00:16:23.947Z,32.50
2023-03-03T00:18:53.409Z,33.25
2023-03-03T00:21:29.560Z,33.70
2023-03-03T00:24:17.099Z,34.15
2023-03-03T00:26:49.571Z,32.50
2023-03-03T00:29:31.026Z,34.53
2023-03-03T00:32:17.751Z,30.40
2023-03-03T00:34:46.674Z,36.80
2023-03-03T00:37:29.307Z,32.58
2023-03-03T00:40:15.088Z,38.13
2023-03-03T00:42:48.600Z,34.13
2023-03-03T00:45:31.332Z,34.20
2023-03-03T00:48:00.654Z,37.15
2023-03-03T00:50:36.074Z,33.72
2023-03-03T00:53:12.418Z,36.20
2023-03-03T00:55:41.982Z,31.92
2023-03-03T00:58:12.589Z,32.60
2023-03-03T01:00:42.488Z,35.35
2023-03-03T01:03:15.012Z,35.40
2023-03-03T01:05:44.168Z,35.17
2023-03-03T01:08:13.152Z,38.92
2023-03-03T01:10:46.750Z,37.03
2023-03-03T01:13:17.068Z,37.65
2023-03-03T01:15:46.218Z,38.22
2023-03-03T01:18:15.953Z,40.75
2023-03-03T01:20:44.914Z,38.22
2023-03-03T01:23:13.832Z,38.22
2023-03-03T01:25:42.835Z,35.67
2023-03-03T01:28:11.909Z,39.95
2023-03-03T01:30:42.256Z,34.05
2023-03-03T01:33:11.140Z,39.38
2023-03-03T01:35:44.693Z,43.00
2023-03-03T01:38:13.583Z,41.50
2023-03-03T01:40:42.984Z,42.97
2023-03-03T01:43:16.221Z,36.95
2023-03-03T01:48:45.838Z,42.67
2023-03-03T01:51:22.277Z,43.45
2023-03-03T01:53:55.035Z,39.00
2023-03-03T01:56:24.076Z,43.42
2023-03-03T01:58:58.052Z,46.33
2023-03-03T02:01:30.409Z,43.20
2023-03-03T02:03:59.638Z,40.90
2023-03-03T02:06:32.511Z,40.67
2023-03-03T02:09:05.396Z,46.00
2023-03-03T02:11:37.862Z,43.58
2023-03-03T02:14:06.835Z,43.65
2023-03-03T02:16:37.292Z,43.47
2023-03-03T02:19:07.001Z,47.13
2023-03-03T02:21:35.944Z,44.25
2023-03-03T02:24:09.542Z,40.90
2023-03-03T02:26:42.765Z,47.78
2023-03-03T02:31:40.335Z,49.00
2023-03-03T02:34:08.902Z,47.67
2023-03-03T02:36:39.474Z,48.70
2023-03-03T02:39:12.104Z,50.85
2023-03-03T02:41:46.461Z,48.42
2023-03-03T02:44:16.191Z,49.65
2023-03-03T02:46:46.587Z,49.70
2023-03-03T02:49:16.588Z,49.03
2023-03-03T02:51:45.563Z,50.25
2023-03-03T02:54:16.134Z,50.80
2023-03-03T02:56:45.932Z,45.90
2023-03-03T02:59:14.503Z,50.03
2023-03-03T03:01:43.097Z,50.47
2023-03-03T03:04:13.716Z,51.83
2023-03-03T03:06:42.487Z,52.42
2023-03-03T03:09:11.788Z,49.40
2023-03-03T03:11:40.511Z,52.53
2023-03-03T03:14:12.079Z,52.05
2023-03-03T03:16:41.007Z,48.67
2023-03-03T03:19:10.115Z,47.92
2023-03-03T03:21:38.449Z,46.28
2023-03-03T03:24:07.307Z,46.55
2023-03-03T03:26:35.568Z,48.95
2023-03-03T03:29:03.870Z,47.15
2023-03-03T03:31:33.816Z,47.33
2023-03-03T03:34:02.092Z,47.90
2023-03-03T03:36:30.352Z,49.17
2023-03-03T03:38:58.632Z,52.15
2023-03-03T03:41:26.803Z,48.33
2023-03-03T03:43:54.988Z,49.28
2023-03-03T03:46:23.194Z,49.25
2023-03-03T03:48:52.896Z,49.45
2023-03-03T03:51:21.182Z,50.28
2023-03-03T03:53:49.397Z,44.88
2023-03-03T03:56:17.692Z,47.75
2023-03-03T03:58:45.920Z,49.97
2023-03-03T04:01:14.162Z,45.05
2023-03-03T04:03:42.645Z,48.88
2023-03-03T04:06:12.245Z,47.20
2023-03-03T04:08:40.478Z,48.85
2023-03-03T04:11:08.720Z,50.72
2023-03-03T04:13:37.027Z,44.22
2023-03-03T04:16:05.521Z,48.50
2023-03-03T04:18:33.795Z,41.25
2023-03-03T04:21:02.054Z,48.30
2023-03-03T04:23:31.716Z,49.75
2023-03-03T04:26:00.035Z,48.58
2023-03-03T04:28:28.366Z,46.10
2023-03-03T04:30:56.610Z,47.33
2023-03-03T04:33:24.838Z,49.80
2023-03-03T04:35:53.245Z,50.17
2023-03-03T04:38:21.984Z,50.20
2023-03-03T04:40:51.673Z,47.97
2023-03-03T04:43:19.874Z,48.10
2023-03-03T04:45:48.273Z,51.00
2023-03-03T04:48:16.526Z,46.33
2023-03-03T04:50:44.739Z,49.20
2023-03-03T04:53:13.002Z,50.15
2023-03-03T04:55:41.187Z,49.50
2023-03-03T04:58:11.121Z,51.92
2023-03-03T05:00:39.820Z,51.30
2023-03-03T05:03:08.322Z,52.13
2023-03-03T05:05:36.535Z,56.60
2023-03-03T05:08:04.781Z,50.80
2023-03-03T05:10:35.055Z,50.28
2023-03-03T05:13:03.426Z,51.15
2023-03-03T05:15:33.137Z,50.95
2023-03-03T05:18:01.520Z,56.75
2023-03-03T05:20:29.766Z,48.38
2023-03-03T05:23:00.106Z,46.17
2023-03-03T05:25:28.372Z,48.00
2023-03-03T05:27:56.693Z,51.75
2023-03-03T05:30:27.531Z,49.97
2023-03-03T05:32:59.408Z,50.35
2023-03-03T05:35:27.732Z,51.17
2023-03-03T05:37:58.116Z,48.22
2023-03-03T05:40:27.008Z,49.13
2023-03-03T05:42:55.391Z,45.78
2023-03-03T05:45:24.430Z,45.70
2023-03-03T05:47:53.046Z,45.17
2023-03-03T05:50:24.112Z,44.90
2023-03-03T05:52:53.548Z,46.90
2023-03-03T05:55:21.844Z,42.13
2023-03-03T05:57:50.126Z,41.97
2023-03-03T06:00:19.342Z,43.70
2023-03-03T06:02:47.906Z,43.10
2023-03-03T06:05:16.186Z,43.35
2023-03-03T06:07:45.786Z,35.95
2023-03-03T06:10:14.059Z,43.45
2023-03-03T06:12:42.287Z,45.50
2023-03-03T06:15:11.377Z,46.17
2023-03-03T06:17:39.645Z,41.33
2023-03-03T06:20:16.759Z,46.97
2023-03-03T06:22:46.423Z,41.10
2023-03-03T06:25:14.677Z,43.72
2023-03-03T06:27:42.929Z,42.08
2023-03-03T06:30:12.958Z,39.85
2023-03-03T06:32:41.480Z,43.58
2023-03-03T06:35:10.025Z,39.95
2023-03-03T06:37:38.297Z,37.00
2023-03-03T06:40:09.461Z,35.63
2023-03-03T06:42:37.692Z,38.67
2023-03-03T06:45:06.666Z,41.92
2023-03-03T06:47:35.108Z,38.20
2023-03-03T06:50:03.294Z,35.15
2023-03-03T06:52:31.511Z,36.55
2023-03-03T06:55:01.982Z,37.47
2023-03-03T06:57:33.466Z,37.22
2023-03-03T07:00:14.278Z,37.03
2023-03-03T07:02:42.612Z,37.70
2023-03-03T07:05:16.265Z,32.17
2023-03-03T07:07:45.191Z,33.33
2023-03-03T07:10:25.030Z,32.20
2023-03-03T07:12:55.040Z,32.53
2023-03-03T07:15:25.735Z,32.58
2023-03-03T07:17:59.821Z,33.35
2023-03-03T07:20:36.277Z,30.88
2023-03-03T07:23:19.937Z,28.63
2023-03-03T07:25:48.678Z,26.77
2023-03-03T07:28:24.175Z,31.13
2023-03-03T07:30:52.723Z,29.88
2023-03-03T07:33:27.188Z,29.77
2023-03-03T07:35:57.093Z,35.13
2023-03-03T07:38:32.180Z,31.15
2023-03-03T07:41:02.975Z,31.15
2023-03-03T07:43:39.166Z,28.20
2023-03-03T07:46:27.964Z,31.70
2023-03-03T07:49:00.117Z,25.67
2023-03-03T07:51:31.856Z,29.15
2023-03-03T07:54:18.919Z,28.20
2023-03-03T07:56:48.072Z,26.00
2023-03-03T07:59:23.844Z,26.85
2023-03-03T08:01:55.298Z,27.75
2023-03-03T08:04:29.601Z,24.70
2023-03-03T08:06:59.176Z,28.23
2023-03-03T08:09:40.259Z,25.77
2023-03-03T08:12:31.449Z,32.33
2023-03-03T08:15:30.784Z,33.95
2023-03-03T08:18:02.559Z,39.78
2023-03-03T08:20:57.202Z,24.27
2023-03-03T08:23:25.407Z,27.48
2023-03-03T08:25:54.030Z,23.83
2023-03-03T08:28:22.780Z,26.05
2023-03-03T08:31:02.703Z,24.33
2023-03-03T08:33:34.107Z,27.05
2023-03-03T08:36:03.084Z,37.25
2023-03-03T08:38:31.287Z,23.83
2023-03-03T08:40:59.484Z,29.58
2023-03-03T08:43:28.733Z,25.85
2023-03-03T08:46:01.214Z,23.60
2023-03-03T08:48:30.298Z,23.98
2023-03-03T08:50:58.855Z,24.33
2023-03-03T08:53:27.506Z,22.52
2023-03-03T08:55:56.108Z,22.45
2023-03-03T08:58:34.715Z,26.80
2023-03-03T09:01:05.692Z,23.55
2023-03-03T09:03:34.097Z,23.02
2023-03-03T09:06:02.388Z,23.40
2023-03-03T09:08:30.594Z,25.00
2023-03-03T09:10:58.847Z,20.67
2023-03-03T09:13:28.385Z,19.65
2023-03-03T09:15:59.101Z,23.95
2023-03-03T09:18:36.488Z,24.70
2023-03-03T09:21:20.079Z,22.80
2023-03-03T09:23:51.953Z,21.88
2023-03-03T09:26:31.326Z,26.05
2023-03-03T09:29:10.896Z,26.08
2023-03-03T09:31:46.308Z,28.48
2023-03-03T09:34:21.439Z,21.25
2023-03-03T09:36:50.588Z,23.88
2023-03-03T09:39:23.416Z,23.33
2023-03-03T09:42:26.117Z,27.05
2023-03-03T09:45:18.803Z,22.10
2023-03-03T09:48:04.141Z,26.73
2023-03-03T09:50:45.051Z,21.20
2023-03-03T09:53:25.370Z,24.08
2023-03-03T09:56:00.759Z,23.45
2023-03-03T09:58:51.278Z,23.55
2023-03-03T10:01:48.397Z,24.35
2023-03-03T10:04:50.661Z,20.55
2023-03-03T10:07:39.123Z,20.27
2023-03-03T10:10:30.925Z,24.20
2023-03-03T10:13:13.254Z,22.92
2023-03-03T10:15:49.282Z,22.83
2023-03-03T10:18:32.256Z,21.67
2023-03-03T10:21:10.764Z,20.27
2023-03-03T10:23:58.815Z,21.58
2023-03-03T10:27:12.125Z,22.60
2023-03-03T10:29:54.174Z,26.58
2023-03-03T10:32:43.618Z,21.45
2023-03-03T10:35:41.518Z,23.55
2023-03-03T10:38:27.465Z,23.30
2023-03-03T10:41:08.557Z,20.10
2023-03-03T10:44:00.573Z,20.10
2023-03-03T10:46:47.231Z,28.50
2023-03-03T10:49:47.682Z,21.15
2023-03-03T10:52:46.413Z,19.92
2023-03-03T10:55:38.262Z,20.42
2023-03-03T10:58:28.607Z,26.73
2023-03-03T11:01:05.414Z,22.20
2023-03-03T11:03:46.745Z,19.98
2023-03-03T11:06:21.668Z,19.75
2023-03-03T11:08:55.187Z,23.85
2023-03-03T11:11:34.191Z,19.83
2023-03-03T11:14:13.241Z,20.85
2023-03-03T11:16:54.392Z,22.55
2023-03-03T11:19:47.490Z,26.17
2023-03-03T11:22:29.524Z,17.38
2023-03-03T11:25:06.679Z,18.40
2023-03-03T11:28:07.702Z,14.50
2023-03-03T11:30:47.209Z,16.35
2023-03-03T11:33:22.273Z,18.50
2023-03-03T11:36:02.661Z,16.05
2023-03-03T11:38:42.612Z,22.90
2023-03-03T11:41:24.603Z,15.43
2023-03-03T11:43:57.680Z,14.52
2023-03-03T11:46:34.199Z,16.42
2023-03-03T11:49:07.831Z,21.10
2023-03-03T11:51:45.306Z,17.52
2023-03-03T11:54:22.213Z,26.30
2023-03-03T11:56:51.074Z,18.33
2023-03-03T11:59:47.249Z,14.77
2023-03-03T12:02:37.179Z,13.70
2023-03-03T12:05:11.828Z,12.85
2023-03-03T12:07:50.724Z,25.42
2023-03-03T12:10:29.163Z,16.30
2023-03-03T12:13:04.472Z,13.45
2023-03-03T12:15:44.823Z,13.07
2023-03-03T12:18:40.471Z,13.52
2023-03-03T12:21:26.136Z,15.40
2023-03-03T12:24:23.550Z,14.10
2023-03-03T12:27:00.192Z,12.57
2023-03-03T12:29:36.733Z,10.73
2023-03-03T12:32:18.709Z,11.40
2023-03-03T12:34:54.955Z,11.93
2023-03-03T12:37:40.472Z,18.15
2023-03-03T12:40:14.488Z,13.40
2023-03-03T12:43:05.845Z,10.85
2023-03-03T12:45:43.289Z,11.68
2023-03-03T12:48:18.163Z,37.58
2023-03-03T12:51:00.660Z,10.52
2023-03-03T12:53:47.896Z,10.18
2023-03-03T12:56:26.175Z,10.13
2023-03-03T12:59:01.733Z,9.63
2023-03-03T13:01:46.050Z,8.80
2023-03-03T13:04:29.987Z,8.43
2023-03-03T13:07:06.061Z,11.20
2023-03-03T13:09:41.653Z,11.10
2023-03-03T13:12:26.923Z,10.20
2023-03-03T13:14:58.674Z,10.18
2023-03-03T13:17:31.517Z,8.57
2023-03-03T13:20:02.229Z,9.20
2023-03-03T13:22:40.864Z,7.18
2023-03-03T13:25:25.956Z,10.00
2023-03-03T13:28:00.154Z,8.30
2023-03-03T13:30:33.240Z,8.52
2023-03-03T13:33:04.688Z,9.20
2023-03-03T13:35:44.595Z,9.73
2023-03-03T13:38:19.908Z,10.98
2023-03-03T13:40:52.104Z,6.90
2023-03-03T13:43:24.107Z,6.13
2023-03-03T13:46:00.146Z,8.63
2023-03-03T13:48:45.127Z,7.30
2023-03-03T13:51:23.304Z,17.33
2023-03-03T13:54:00.009Z,10.80
2023-03-03T13:56:41.190Z,8.07
2023-03-03T13:59:18.791Z,8.32
2023-03-03T14:01:57.235Z,6.78
2023-03-03T14:04:39.639Z,7.50
2023-03-03T14:07:15.596Z,6.25
2023-03-03T14:10:03.588Z,7.78
2023-03-03T14:12:43.354Z,9.18
2023-03-03T14:15:23.853Z,8.05
2023-03-03T14:18:16.969Z,6.32
2023-03-03T14:20:49.626Z,12.13
2023-03-03T14:23:22.931Z,6.15
2023-03-03T14:26:08.717Z,7.28
2023-03-03T14:28:44.146Z,6.18
2023-03-03T14:31:19.431Z,8.20
2023-03-03T14:33:58.537Z,11.25
2023-03-03T14:36:32.194Z,8.18
2023-03-03T14:39:01.031Z,5.95
2023-03-03T14:41:43.062Z,6.68
2023-03-03T14:44:29.598Z,6.20
2023-03-03T14:47:14.436Z,5.88
2023-03-03T14:49:42.895Z,6.78
2023-03-03T14:52:22.670Z,5.80
2023-03-03T14:54:54.246Z,7.22
2023-03-03T14:57:46.329Z,5.55
2023-03-03T15:00:31.351Z,6.82
2023-03-03T15:03:06.723Z,6.88
2023-03-03T15:05:35.347Z,13.18
2023-03-03T15:08:12.376Z,6.32
2023-03-03T15:10:42.476Z,6.70
2023-03-03T15:13:34.146Z,6.55
2023-03-03T15:16:12.052Z,13.77
2023-03-03T15:19:07.267Z,5.22
2023-03-03T15:21:38.355Z,4.82
2023-03-03T15:24:14.129Z,6.38
2023-03-03T15:26:48.567Z,4.90
2023-03-03T15:29:26.483Z,5.20
2023-03-03T15:32:02.343Z,6.18
2023-03-03T15:34:39.051Z,5.95
2023-03-03T15:37:27.507Z,7.72
2023-03-03T15:40:04.508Z,5.55
2023-03-03T15:42:39.353Z,5.38
2023-03-03T15:45:19.204Z,11.65
2023-03-03T15:48:13.784Z,7.00
2023-03-03T15:50:51.723Z,7.75
2023-03-03T15:53:42.010Z,6.50
2023-03-03T15:56:21.830Z,5.30
2023-03-03T15:59:14.076Z,6.28
2023-03-03T16:01:52.880Z,6.10
2023-03-03T16:04:25.739Z,9.30
2023-03-03T16:07:03.353Z,6.57
2023-03-03T16:09:44.556Z,6.15
2023-03-03T16:12:22.112Z,8.38
2023-03-03T16:15:21.161Z,6.25
2023-03-03T16:18:00.221Z,8.18
2023-03-03T16:20:34.098Z,8.25
2023-03-03T16:23:26.011Z,8.25
2023-03-03T16:26:07.266Z,7.32
2023-03-03T16:28:47.520Z,9.57
2023-03-03T16:31:24.214Z,7.82
2023-03-03T16:34:01.870Z,6.70
2023-03-03T16:36:40.467Z,7.95
2023-03-03T16:39:18.473Z,8.50
2023-03-03T16:41:52.566Z,7.63
2023-03-03T16:44:35.438Z,8.52
2023-03-03T16:47:18.539Z,10.05
2023-03-03T16:49:54.420Z,8.70
2023-03-03T16:52:30.317Z,11.90
2023-03-03T16:55:10.035Z,10.32
2023-03-03T16:57:52.443Z,11.32
2023-03-03T17:01:06.786Z,8.15
2023-03-03T17:06:20.496Z,9.93
2023-03-03T17:09:20.445Z,10.52
2023-03-03T17:12:08.356Z,12.93
2023-03-03T17:15:00.738Z,11.30
2023-03-03T17:17:39.425Z,13.80
2023-03-03T17:20:31.251Z,13.75
2023-03-03T17:23:21.139Z,11.15
2023-03-03T17:25:58.365Z,13.85
2023-03-03T17:28:35.893Z,12.90
2023-03-03T17:31:15.951Z,13.57
2023-03-03T17:34:21.049Z,12.82
2023-03-03T17:37:01.712Z,15.82
2023-03-03T17:40:14.148Z,12.98
2023-03-03T17:42:50.626Z,15.40
2023-03-03T17:45:23.450Z,13.30
2023-03-03T17:48:25.055Z,12.45
2023-03-03T17:51:38.782Z,13.20
2023-03-03T17:54:38.190Z,14.77
2023-03-03T17:57:57.599Z,14.85
2023-03-03T18:00:52.092Z,11.98
2023-03-03T18:04:22.101Z,14.00
2023-03-03T18:07:47.908Z,22.85
2023-03-03T18:10:43.515Z,13.77
2023-03-03T18:13:30.908Z,12.52
2023-03-03T18:16:22.284Z,13.57
2023-03-03T18:19:35.202Z,13.27
2023-03-03T18:22:08.798Z,11.50
2023-03-03T18:24:42.536Z,13.57
2023-03-03T18:27:35.797Z,14.10
2023-03-03T18:30:26.479Z,12.57
2023-03-03T18:33:15.499Z,13.23
2023-03-03T18:35:47.551Z,14.88
2023-03-03T18:38:41.833Z,13.77
2023-03-03T18:41:16.520Z,13.95
2023-03-03T18:43:56.752Z,16.15
2023-03-03T18:46:56.000Z,12.98
2023-03-03T18:49:52.765Z,14.38
2023-03-03T18:52:29.976Z,15.65
2023-03-03T18:55:24.319Z,14.13
2023-03-03T18:58:29.041Z,19.63
2023-03-03T19:01:00.735Z,17.67
2023-03-03T19:03:35.218Z,24.73
2023-03-03T19:06:11.915Z,17.23
2023-03-03T19:08:56.727Z,19.95
2023-03-03T19:11:56.368Z,19.67
2023-03-03T19:14:39.101Z,18.23
2023-03-03T19:17:41.901Z,18.23
2023-03-03T19:20:30.855Z,16.52
2023-03-03T19:23:40.970Z,14.88
2023-03-03T19:26:53.348Z,16.13
2023-03-03T19:29:48.364Z,14.80
2023-03-03T19:32:32.106Z,16.02
2023-03-03T19:35:13.902Z,19.02
2023-03-03T19:37:52.168Z,23.35
2023-03-03T19:40:27.115Z,17.95
2023-03-03T19:43:03.720Z,22.40
2023-03-03T19:45:48.472Z,26.40
2023-03-03T19:48:26.965Z,24.85
2023-03-03T19:51:01.925Z,20.77
2023-03-03T19:53:42.812Z,23.20
2023-03-03T19:56:20.048Z,18.25
2023-03-03T19:58:59.527Z,23.35
2023-03-03T20:01:32.528Z,19.73
2023-03-03T20:04:17.657Z,21.95
2023-03-03T20:06:55.570Z,20.73
2023-03-03T20:09:36.230Z,23.65
2023-03-03T20:12:20.742Z,18.63
2023-03-03T20:14:54.895Z,18.48
2023-03-03T20:17:49.948Z,19.52
2023-03-03T20:20:42.331Z,40.55
2023-03-03T20:23:20.675Z,44.05
2023-03-03T20:25:53.276Z,59.50
2023-03-03T20:28:57.861Z,59.03
2023-03-03T20:31:35.693Z,23.77
2023-03-03T20:34:19.122Z,20.95
2023-03-03T20:36:56.760Z,28.23
2023-03-03T20:39:49.577Z,19.80
2023-03-03T20:42:33.830Z,20.63
2023-03-03T20:45:28.271Z,21.38
2023-03-03T20:48:10.979Z,18.58
2023-03-03T20:50:52.105Z,20.15
2023-03-03T20:53:28.170Z,19.50
2023-03-03T20:56:05.831Z,21.63
2023-03-03T20:58:43.390Z,22.83
2023-03-03T21:01:15.806Z,21.00
2023-03-03T21:03:46.324Z,19.33
2023-03-03T21:06:16.476Z,23.67
2023-03-03T21:08:49.524Z,40.92
2023-03-03T21:11:21.567Z,38.08
2023-03-03T21:13:52.019Z,29.67
2023-03-03T21:16:39.969Z,24.80
2023-03-03T21:19:13.285Z,21.75
2023-03-03T21:21:45.190Z,17.15
2023-03-03T21:24:19.673Z,13.88
2023-03-03T21:26:58.684Z,14.32
2023-03-03T21:29:28.717Z,16.65
2023-03-03T21:31:58.908Z,17.60
2023-03-03T21:34:31.210Z,14.60
2023-03-03T21:37:00.123Z,16.60
2023-03-03T21:39:31.692Z,17.13
2023-03-03T21:42:02.518Z,15.75
2023-03-03T21:44:34.017Z,14.70
2023-03-03T21:47:02.562Z,18.55
2023-03-03T21:49:32.228Z,18.27
2023-03-03T21:52:00.851Z,18.95
2023-03-03T21:54:29.489Z,17.55
2023-03-03T21:56:57.735Z,15.27
2023-03-03T21:59:26.130Z,17.15
2023-03-03T22:01:54.459Z,17.60
2023-03-03T22:04:22.706Z,19.60
2023-03-03T22:06:52.834Z,16.48
2023-03-03T22:09:21.113Z,17.75
2023-03-03T22:11:49.874Z,18.77
2023-03-03T22:14:18.100Z,19.52
2023-03-03T22:16:47.576Z,19.50
2023-03-03T22:19:15.957Z,21.40
2023-03-03T22:21:44.290Z,21.30
2023-03-03T22:24:13.961Z,21.58
2023-03-03T22:26:42.184Z,24.20
2023-03-03T22:29:10.752Z,23.17
2023-03-03T22:31:38.988Z,19.60
2023-03-03T22:34:07.303Z,18.58
2023-03-03T22:36:35.570Z,19.35
2023-03-03T22:39:03.776Z,17.38
2023-03-03T22:41:33.403Z,16.50
2023-03-03T22:44:01.606Z,17.60
2023-03-03T22:46:29.843Z,18.10
2023-03-03T22:48:58.059Z,18.95
2023-03-03T22:51:26.400Z,20.00
2023-03-03T22:53:54.674Z,16.80
2023-03-03T22:56:22.857Z,16.13
2023-03-03T22:58:52.514Z,19.58
2023-03-03T23:01:20.723Z,16.42
2023-03-03T23:03:50.203Z,19.23
2023-03-03T23:06:18.646Z,18.70
2023-03-03T23:08:47.066Z,18.48
2023-03-03T23:11:15.303Z,19.55
2023-03-03T23:13:43.685Z,21.13
2023-03-03T23:16:13.361Z,19.20
2023-03-03T23:18:43.402Z,20.48
2023-03-03T23:21:11.646Z,19.60
2023-03-03T23:23:39.851Z,20.55
2023-03-03T23:26:08.056Z,21.75
2023-03-03T23:28:36.228Z,20.17
2023-03-03T23:31:04.448Z,21.25
2023-03-03T23:33:35.368Z,18.35
2023-03-03T23:36:03.642Z,19.88
2023-03-03T23:38:31.844Z,19.67
2023-03-03T23:41:00.040Z,20.55
2023-03-03T23:43:28.222Z,18.13
2023-03-03T23:45:56.428Z,18.23
2023-03-03T23:48:24.644Z,19.88
2023-03-03T23:50:54.255Z,18.17
2023-03-03T23:53:22.501Z,22.77
2023-03-03T23:55:52.318Z,20.80
2023-03-03T23:58:20.547Z,22.85
